Time;durP1;ratioP1;P1;durP2;ratioP2;P2;SDS_P1;SDS_P2;PMS_P1;PMS_P2;Temp;Humidity;BMP_temperature;BMP_pressure;BME280_temperature;BME280_humidity;BME280_pressure;Samples;Min_cycle;Max_cycle;Signal;HPM_P1;HPM_P2
2021/11/26 00:02:18;;;;;;;35.00;18.37;;;;;;;-2.83;100.00;100670.31;1664254;84;21221;-70
2021/11/26 00:04:46;;;;;;;36.87;19.43;;;;;;;-2.86;100.00;100668.20;1655088;86;21105;-69
2021/11/26 00:07:13;;;;;;;35.97;19.27;;;;;;;-2.90;100.00;100658.70;1659827;85;21504;-70
2021/11/26 00:09:40;;;;;;;33.27;18.27;;;;;;;-2.94;100.00;100660.22;1674197;84;21013;-71
2021/11/26 00:12:07;;;;;;;34.57;18.87;;;;;;;-2.98;100.00;100666.12;1677071;84;21077;-68
2021/11/26 00:14:36;;;;;;;34.93;17.77;;;;;;;-3.02;100.00;100661.05;1669741;84;21026;-70
2021/11/26 00:17:04;;;;;;;38.03;18.53;;;;;;;-3.07;100.00;100657.28;1669681;85;21034;-69
2021/11/26 00:19:33;;;;;;;32.13;18.10;;;;;;;-3.11;100.00;100650.41;1678084;84;21211;-70
2021/11/26 00:22:00;;;;;;;31.87;17.47;;;;;;;-3.14;100.00;100646.11;1673018;84;21114;-69
2021/11/26 00:24:26;;;;;;;30.90;17.40;;;;;;;-3.16;100.00;100637.38;1666846;85;21054;-69
2021/11/26 00:26:54;;;;;;;35.20;18.87;;;;;;;-3.21;100.00;100630.59;1686165;84;21102;-69
2021/11/26 00:29:21;;;;;;;43.47;22.57;;;;;;;-3.24;100.00;100631.56;1674154;84;20998;-68
2021/11/26 00:31:48;;;;;;;42.63;25.13;;;;;;;-3.28;100.00;100620.27;1676915;84;21116;-70
2021/11/26 00:34:15;;;;;;;35.63;21.87;;;;;;;-3.30;100.00;100638.00;1665256;84;21026;-70
2021/11/26 00:36:42;;;;;;;41.77;24.83;;;;;;;-3.33;100.00;100617.44;1677861;85;21169;-70
2021/11/26 00:39:09;;;;;;;39.93;22.53;;;;;;;-3.36;100.00;100622.88;1684201;84;21016;-70
2021/11/26 00:41:35;;;;;;;35.37;20.30;;;;;;;-3.39;100.00;100614.61;1685670;84;21040;-70
2021/11/26 00:44:03;;;;;;;36.90;19.03;;;;;;;-3.42;100.00;100604.16;1681478;84;21516;-70
2021/11/26 00:46:30;;;;;;;37.53;18.00;;;;;;;-3.42;100.00;100607.27;1674313;84;21027;-69
2021/11/26 00:48:58;;;;;;;37.37;19.87;;;;;;;-3.46;100.00;100599.47;1667599;85;21129;-69
2021/11/26 00:51:25;;;;;;;37.40;19.77;;;;;;;-3.48;100.00;100595.19;1630734;85;21092;-69
2021/11/26 00:53:52;;;;;;;36.80;17.87;;;;;;;-3.50;100.00;100594.41;1630799;86;22551;-70
2021/11/26 00:56:19;;;;;;;35.17;18.37;;;;;;;-3.50;100.00;100590.44;1639641;86;21254;-69
2021/11/26 00:58:45;;;;;;;38.17;18.07;;;;;;;-3.52;100.00;100583.05;1624426;85;21518;-69
2021/11/26 01:01:13;;;;;;;38.00;20.03;;;;;;;-3.50;100.00;100575.42;1667953;84;21079;-69
2021/11/26 01:03:40;;;;;;;39.80;17.93;;;;;;;-3.48;100.00;100576.21;1676325;84;21063;-69
2021/11/26 01:06:09;;;;;;;40.17;19.40;;;;;;;-3.47;100.00;100568.69;1681612;84;21081;-69
2021/11/26 01:08:36;;;;;;;36.73;18.00;;;;;;;-3.48;100.00;100570.92;1698885;84;21091;-69
2021/11/26 01:11:03;;;;;;;38.67;18.60;;;;;;;-3.50;100.00;100568.81;1711679;84;21569;-69
2021/11/26 01:13:30;;;;;;;36.57;18.80;;;;;;;-3.49;100.00;100563.94;1701435;83;20994;-69
2021/11/26 01:15:56;;;;;;;40.57;19.53;;;;;;;-3.50;100.00;100556.07;1680824;84;21531;-69
2021/11/26 01:18:23;;;;;;;38.20;18.97;;;;;;;-3.50;100.00;100552.10;1700729;82;21025;-70
2021/11/26 01:20:50;;;;;;;35.33;17.93;;;;;;;-3.52;100.00;100549.52;1722591;82;21006;-69
2021/11/26 01:23:17;;;;;;;35.73;18.47;;;;;;;-3.49;100.00;100548.52;1734516;80;21025;-69
2021/11/26 01:25:43;;;;;;;36.43;17.67;;;;;;;-3.49;100.00;100546.75;1727665;82;21007;-70
2021/11/26 01:28:10;;;;;;;34.73;16.77;;;;;;;-3.48;100.00;100544.95;1723679;82;21128;-69
2021/11/26 01:30:44;;;;;;;36.17;17.40;;;;;;;-3.49;100.00;100542.78;1723562;80;21022;-70
2021/11/26 01:33:10;;;;;;;36.20;17.60;;;;;;;-3.50;100.00;100541.53;1719232;80;21018;-69
2021/11/26 01:35:39;;;;;;;37.37;18.87;;;;;;;-3.50;100.00;100543.70;1723658;82;21074;-69
2021/11/26 01:38:06;;;;;;;36.83;18.90;;;;;;;-3.49;100.00;100534.85;1725162;81;21010;-71
2021/11/26 01:40:38;;;;;;;35.93;18.30;;;;;;;-3.49;100.00;100540.14;1733905;81;21120;-71
2021/11/26 01:43:07;;;;;;;32.20;17.47;;;;;;;-3.48;100.00;100540.52;1724883;81;21152;-69
2021/11/26 01:45:45;;;;;;;34.80;18.00;;;;;;;-3.48;100.00;100544.48;1718090;82;21014;-68
2021/11/26 01:48:12;;;;;;;31.63;16.23;;;;;;;-3.49;100.00;100544.55;1721273;80;20986;-73
2021/11/26 01:50:39;;;;;;;33.97;17.40;;;;;;;-3.53;100.00;100528.44;1723481;81;21073;-74
2021/11/26 01:53:07;;;;;;;29.53;15.93;;;;;;;-3.55;100.00;100531.15;1751089;82;21370;-73
2021/11/26 01:55:35;;;;;;;29.67;15.43;;;;;;;-3.57;100.00;100528.19;1729138;80;21041;-73
2021/11/26 01:58:02;;;;;;;27.17;14.13;;;;;;;-3.58;100.00;100532.59;1729118;82;20990;-74
2021/11/26 02:00:32;;;;;;;28.70;13.83;;;;;;;-3.60;100.00;100521.23;1722449;81;21092;-75
2021/11/26 02:03:01;;;;;;;24.87;13.40;;;;;;;-3.59;100.00;100515.48;1742604;82;21032;-73
2021/11/26 02:05:28;;;;;;;26.00;13.23;;;;;;;-3.58;100.00;100511.45;1727589;81;21071;-74
2021/11/26 02:07:55;;;;;;;26.60;13.50;;;;;;;-3.58;100.00;100513.24;1717790;82;21041;-74
2021/11/26 02:10:22;;;;;;;27.80;13.37;;;;;;;-3.58;100.00;100512.77;1717914;83;21116;-73
2021/11/26 02:12:49;;;;;;;25.40;13.13;;;;;;;-3.58;100.00;100506.16;1697565;83;21021;-74
2021/11/26 02:15:23;;;;;;;26.30;13.00;;;;;;;-3.57;100.00;100514.97;1684670;84;21053;-73
2021/11/26 02:17:54;;;;;;;29.53;13.03;;;;;;;-3.58;100.00;100522.02;1595577;88;21111;-74
2021/11/26 02:20:25;;;;;;;23.80;12.13;;;;;;;-3.56;100.00;100515.35;1605538;88;21115;-73
2021/11/26 02:22:53;;;;;;;26.03;12.03;;;;;;;-3.57;100.00;100515.83;1505850;95;21584;-74
2021/11/26 02:25:22;;;;;;;25.83;11.93;;;;;;;-3.57;100.00;100509.69;1542579;92;21043;-75
2021/11/26 02:27:51;;;;;;;22.97;11.73;;;;;;;-3.56;100.00;100519.31;1560143;91;21070;-73
2021/11/26 02:30:18;;;;;;;23.77;11.13;;;;;;;-3.58;100.00;100511.45;1561292;92;21089;-74
2021/11/26 02:33:02;;;;;;;23.70;11.43;;;;;;;-3.57;100.00;100509.69;1561336;92;21050;-74
2021/11/26 02:35:29;;;;;;;23.40;11.60;;;;;;;-3.57;100.00;100506.57;1561117;92;21564;-74
2021/11/26 02:37:57;;;;;;;22.97;11.90;;;;;;;-3.57;100.00;100511.86;1561169;92;21187;-74
2021/11/26 02:40:25;;;;;;;24.40;11.53;;;;;;;-3.58;100.00;100506.16;1561322;92;21047;-75
2021/11/26 02:42:54;;;;;;;26.10;12.87;;;;;;;-3.57;100.00;100510.53;1561228;92;21086;-75
2021/11/26 02:45:21;;;;;;;24.67;12.07;;;;;;;-3.59;100.00;100493.89;1561205;92;21078;-74
2021/11/26 02:47:48;;;;;;;23.97;12.97;;;;;;;-3.57;100.00;100497.32;1560674;92;21189;-69
2021/11/26 02:50:16;;;;;;;26.57;14.23;;;;;;;-3.56;100.00;100495.52;1561163;92;21611;-69
2021/11/26 02:52:43;;;;;;;32.70;18.43;;;;;;;-3.55;100.00;100501.22;1554884;92;21090;-68
2021/11/26 02:55:15;;;;;;;27.50;16.93;;;;;;;-3.57;100.00;100501.28;1560763;92;21110;-69
2021/11/26 02:57:42;;;;;;;25.47;14.93;;;;;;;-3.57;100.00;100497.79;1560439;92;21058;-69
2021/11/26 03:00:10;;;;;;;27.27;15.37;;;;;;;-3.61;100.00;100495.75;1560733;92;21635;-69
2021/11/26 03:02:38;;;;;;;26.97;15.20;;;;;;;-3.65;100.00;100483.58;1583226;89;21112;-71
2021/11/26 03:05:06;;;;;;;24.17;13.17;;;;;;;-3.66;100.00;100475.27;1602831;89;21156;-69
2021/11/26 03:07:34;;;;;;;24.20;13.30;;;;;;;-3.69;100.00;100473.61;1596326;89;21063;-70
2021/11/26 03:10:00;;;;;;;23.20;11.70;;;;;;;-3.70;100.00;100477.20;1600098;89;21050;-69
2021/11/26 03:14:54;;;;;;;22.27;11.00;;;;;;;-3.67;100.00;100468.26;1642826;86;21242;-69
2021/11/26 03:17:21;;;;;;;22.60;11.77;;;;;;;-3.67;100.00;100462.97;1662375;86;21478;-69
2021/11/26 03:19:49;;;;;;;21.47;11.10;;;;;;;-3.64;100.00;100466.33;1697566;84;21089;-68
2021/11/26 03:22:16;;;;;;;22.27;11.17;;;;;;;-3.64;100.00;100454.44;1691518;84;21201;-70
2021/11/26 03:24:43;;;;;;;22.53;10.47;;;;;;;-3.63;100.00;100455.28;1671219;84;21049;-68
2021/11/26 03:27:11;;;;;;;21.83;10.73;;;;;;;-3.64;100.00;100453.59;1707230;82;21135;-68
2021/11/26 03:29:38;;;;;;;23.67;11.17;;;;;;;-3.64;100.00;100456.23;1704147;82;20998;-69
2021/11/26 03:32:06;;;;;;;21.57;10.40;;;;;;;-3.64;100.00;100458.41;1715500;82;21541;-71
2021/11/26 03:34:35;;;;;;;19.70;10.13;;;;;;;-3.63;100.00;100465.42;1713769;82;21074;-70
2021/11/26 03:37:02;;;;;;;20.87;10.60;;;;;;;-3.63;100.00;100464.09;1686041;84;20999;-69
2021/11/26 03:39:29;;;;;;;22.27;10.87;;;;;;;-3.62;100.00;100463.16;1692310;84;21038;-70
2021/11/26 03:41:55;;;;;;;24.30;12.43;;;;;;;-3.60;100.00;100451.66;1723720;83;21042;-68
2021/11/26 03:44:22;;;;;;;20.93;10.40;;;;;;;-3.60;100.00;100453.83;1711045;83;21036;-69
2021/11/26 03:46:49;;;;;;;21.00;11.50;;;;;;;-3.58;100.00;100456.41;1704773;82;21107;-69
2021/11/26 03:49:16;;;;;;;22.40;10.90;;;;;;;-3.58;100.00;100457.73;1711614;82;21011;-68
2021/11/26 03:51:43;;;;;;;23.30;12.40;;;;;;;-3.58;100.00;100461.22;1711703;82;21065;-69
2021/11/26 03:54:10;;;;;;;22.83;11.23;;;;;;;-3.58;100.00;100457.26;1710603;83;21115;-68
2021/11/26 03:56:37;;;;;;;20.93;11.00;;;;;;;-3.60;100.00;100451.66;1715152;82;21101;-69
2021/11/26 03:59:06;;;;;;;22.40;10.83;;;;;;;-3.62;100.00;100455.69;1703888;83;21053;-70
2021/11/26 04:01:34;;;;;;;21.87;11.30;;;;;;;-3.62;100.00;100462.30;1688152;84;21079;-70
2021/11/26 04:04:01;;;;;;;21.10;11.40;;;;;;;-3.62;100.00;100464.95;1713572;83;21022;-69
2021/11/26 04:06:33;;;;;;;21.73;11.53;;;;;;;-3.63;100.00;100465.42;1723902;83;21068;-69
2021/11/26 04:08:59;;;;;;;23.07;11.43;;;;;;;-3.62;100.00;100453.05;1728607;83;21014;-69
2021/11/26 04:11:27;;;;;;;22.33;12.27;;;;;;;-3.62;100.00;100455.22;1727371;83;21041;-69
2021/11/26 04:13:55;;;;;;;23.40;12.37;;;;;;;-3.60;100.00;100445.90;1720316;82;21497;-69
2021/11/26 04:16:22;;;;;;;26.93;12.93;;;;;;;-3.58;100.00;100449.33;1718781;83;21025;-69
2021/11/26 04:18:50;;;;;;;25.73;13.00;;;;;;;-3.55;100.00;100444.37;1699481;84;21074;-69
2021/11/26 04:21:17;;;;;;;27.30;13.73;;;;;;;-3.53;100.00;100446.01;1715423;82;21018;-70
2021/11/26 04:23:46;;;;;;;24.67;12.50;;;;;;;-3.48;100.00;100439.20;1714154;83;21670;-69
2021/11/26 04:26:13;;;;;;;23.77;11.83;;;;;;;-3.47;100.00;100437.81;1717298;83;21034;-69
2021/11/26 04:28:40;;;;;;;26.40;12.63;;;;;;;-3.46;100.00;100432.89;1718193;83;21073;-69
2021/11/26 04:31:07;;;;;;;25.33;13.27;;;;;;;-3.47;100.00;100429.87;1712023;83;21006;-70
2021/11/26 04:33:34;;;;;;;27.90;14.33;;;;;;;-3.47;100.00;100419.74;1689238;84;21547;-68
2021/11/26 04:36:01;;;;;;;28.03;13.63;;;;;;;-3.47;100.00;100414.02;1715332;82;21042;-70
2021/11/26 04:38:28;;;;;;;28.80;14.40;;;;;;;-3.44;100.00;100422.25;1717103;82;21559;-69
2021/11/26 04:40:55;;;;;;;29.63;14.80;;;;;;;-3.40;100.00;100430.89;1712905;83;21074;-69
2021/11/26 04:43:23;;;;;;;27.57;14.30;;;;;;;-3.34;100.00;100442.52;1703692;83;21066;-69
2021/11/26 04:45:51;;;;;;;29.10;15.03;;;;;;;-3.31;100.00;100447.64;1720739;83;21105;-70
2021/11/26 04:48:20;;;;;;;30.87;15.30;;;;;;;-3.27;100.00;100439.97;1716471;83;21055;-69
2021/11/26 04:50:47;;;;;;;28.50;15.53;;;;;;;-3.25;100.00;100440.75;1713775;82;21047;-71
2021/11/26 04:53:15;;;;;;;29.27;14.63;;;;;;;-3.25;100.00;100442.08;1694710;83;21007;-70
2021/11/26 04:55:42;;;;;;;27.87;14.53;;;;;;;-3.23;100.00;100444.66;1722398;83;21015;-69
2021/11/26 04:58:09;;;;;;;28.57;14.57;;;;;;;-3.23;100.00;100450.79;1701962;83;21055;-69
2021/11/26 05:00:37;;;;;;;28.07;14.33;;;;;;;-3.20;100.00;100454.63;1719858;83;21039;-70
2021/11/26 05:03:04;;;;;;;32.10;15.00;;;;;;;-3.18;100.00;100452.75;1697831;83;21006;-70
2021/11/26 05:05:32;;;;;;;29.77;14.77;;;;;;;-3.20;100.00;100450.66;1742215;81;21056;-69
2021/11/26 05:07:59;;;;;;;30.80;15.93;;;;;;;-3.21;100.00;100452.89;1736268;81;21027;-69
2021/11/26 05:10:28;;;;;;;27.43;13.97;;;;;;;-3.22;100.00;100452.96;1672904;84;21137;-69
2021/11/26 05:12:57;;;;;;;29.63;15.27;;;;;;;-3.23;100.00;100454.76;1676253;84;21022;-69
2021/11/26 05:15:26;;;;;;;31.50;15.77;;;;;;;-3.23;100.00;100464.02;1672560;85;21053;-68
2021/11/26 05:18:02;;;;;;;29.73;16.60;;;;;;;-3.23;100.00;100460.52;1677734;85;21542;-69
2021/11/26 05:20:30;;;;;;;33.83;17.90;;;;;;;-3.23;100.00;100465.34;1689015;84;21039;-70
2021/11/26 05:22:57;;;;;;;31.97;17.63;;;;;;;-3.22;100.00;100467.06;1684467;84;21165;-68
2021/11/26 05:25:25;;;;;;;31.00;16.60;;;;;;;-3.22;100.00;100469.71;1686978;84;21079;-69
2021/11/26 05:27:53;;;;;;;34.87;20.13;;;;;;;-3.20;100.00;100470.48;1687660;84;21041;-69
2021/11/26 05:30:20;;;;;;;38.93;21.90;;;;;;;-3.18;100.00;100477.03;1662180;84;21074;-70
2021/11/26 05:32:49;;;;;;;42.03;23.23;;;;;;;-3.15;100.00;100475.54;1724170;81;21482;-69
2021/11/26 05:35:16;;;;;;;40.67;21.97;;;;;;;-3.11;100.00;100478.45;1730063;82;21490;-68
2021/11/26 05:37:43;;;;;;;44.30;25.60;;;;;;;-3.07;100.00;100472.92;1731277;82;21018;-68
2021/11/26 05:40:12;;;;;;;56.70;31.20;;;;;;;-3.03;100.00;100475.43;1729247;82;20994;-68
2021/11/26 05:42:39;;;;;;;49.33;28.10;;;;;;;-2.99;100.00;100476.55;1729996;82;21014;-68
2021/11/26 05:45:08;;;;;;;56.13;29.27;;;;;;;-2.92;100.00;100474.44;1727961;82;21105;-68
2021/11/26 05:47:35;;;;;;;40.90;22.67;;;;;;;-2.83;100.00;100467.84;1720963;82;21078;-69
2021/11/26 05:50:06;;;;;;;39.77;20.13;;;;;;;-2.73;100.00;100468.63;1726146;82;21458;-70
2021/11/26 05:52:34;;;;;;;39.93;21.57;;;;;;;-2.63;100.00;100466.41;1666422;85;21626;-69
2021/11/26 05:55:01;;;;;;;38.53;19.57;;;;;;;-2.54;100.00;100475.20;1677767;85;21016;-69
2021/11/26 05:57:28;;;;;;;33.50;19.03;;;;;;;-2.46;100.00;100485.88;1676357;85;21008;-69
2021/11/26 05:59:55;;;;;;;35.63;19.47;;;;;;;-2.41;100.00;100475.91;1702062;83;21022;-69
2021/11/26 06:02:22;;;;;;;33.03;18.00;;;;;;;-2.37;100.00;100477.02;1682107;83;21574;-68
2021/11/26 06:04:49;;;;;;;38.87;20.10;;;;;;;-2.32;100.00;100476.31;1717328;83;21075;-68
2021/11/26 06:07:16;;;;;;;38.03;20.63;;;;;;;-2.25;100.00;100474.66;1721802;83;21083;-69
2021/11/26 06:09:42;;;;;;;44.57;23.83;;;;;;;-2.18;100.00;100479.59;1752961;81;21012;-68
2021/11/26 06:12:11;;;;;;;43.27;22.43;;;;;;;-2.12;100.00;100477.09;1752034;82;21036;-67
2021/11/26 06:14:38;;;;;;;41.53;21.53;;;;;;;-2.10;100.00;100476.53;1734551;81;21021;-69
2021/11/26 06:17:05;;;;;;;39.77;20.67;;;;;;;-2.03;100.00;100477.08;1711762;83;21587;-68
2021/11/26 06:19:32;;;;;;;44.37;25.27;;;;;;;-1.96;100.00;100477.99;1721313;83;21004;-69
2021/11/26 06:21:59;;;;;;;44.03;24.53;;;;;;;-1.87;100.00;100482.43;1721871;83;21063;-69
2021/11/26 06:24:27;;;;;;;40.00;21.93;;;;;;;-1.77;100.00;100477.88;1724700;83;21073;-69
2021/11/26 06:26:54;;;;;;;36.43;20.27;;;;;;;-1.67;100.00;100470.76;1723972;83;21045;-70
2021/11/26 06:29:20;;;;;;;35.30;20.93;;;;;;;-1.57;100.00;100466.67;1710043;83;21033;-70
2021/11/26 06:31:47;;;;;;;37.40;21.30;;;;;;;-1.48;100.00;100470.63;1720057;83;21030;-70
2021/11/26 06:34:16;;;;;;;33.87;19.63;;;;;;;-1.42;100.00;100465.82;1751931;81;22504;-74
2021/11/26 06:36:42;;;;;;;40.43;22.03;;;;;;;-1.36;100.00;100468.16;1733870;81;21106;-74
2021/11/26 06:39:09;;;;;;;39.10;22.17;;;;;;;-1.30;100.00;100480.70;1729162;80;20998;-75
2021/11/26 06:41:36;;;;;;;41.60;23.43;;;;;;;-1.25;100.00;100479.50;1742755;81;21006;-74
2021/11/26 06:44:03;;;;;;;38.77;22.07;;;;;;;-1.16;100.00;100472.83;1749024;81;20978;-74
2021/11/26 06:46:30;;;;;;;38.23;23.47;;;;;;;-1.06;100.00;100475.80;1733817;81;21038;-74
2021/11/26 06:48:58;;;;;;;40.47;24.87;;;;;;;-0.94;100.00;100479.58;1619616;88;21158;-75
2021/11/26 06:51:26;;;;;;;41.07;25.17;;;;;;;-0.80;100.00;100476.54;1631143;88;21123;-76
2021/11/26 06:53:54;;;;;;;38.20;22.50;;;;;;;-0.62;100.00;100472.41;1630483;88;21520;-77
2021/11/26 06:56:21;;;;;;;40.80;23.03;;;;;;;-0.48;100.00;100473.83;1633250;88;20979;-74
2021/11/26 06:58:48;;;;;;;52.10;30.17;;;;;;;-0.40;100.00;100465.39;1638448;88;21066;-78
2021/11/26 07:01:15;;;;;;;43.50;24.73;;;;;;;-0.28;100.00;100461.16;1638352;88;20971;-76
2021/11/26 07:03:41;;;;;;;46.77;26.20;;;;;;;-0.18;100.00;100458.31;1649502;87;21110;-74
2021/11/26 07:06:08;;;;;;;43.10;24.50;;;;;;;-0.12;100.00;100449.98;1650845;87;21545;-72
2021/11/26 07:08:37;;;;;;;40.90;25.03;;;;;;;-0.03;100.00;100444.10;1638540;87;21054;-74
2021/11/26 07:11:04;;;;;;;47.50;27.67;;;;;;;0.03;100.00;100443.35;1632033;88;21505;-73
2021/11/26 07:13:31;;;;;;;44.83;26.20;;;;;;;0.04;100.00;100442.42;1636032;88;21022;-74
2021/11/26 07:15:58;;;;;;;47.10;28.20;;;;;;;0.04;100.00;100443.75;1628989;88;21556;-73
2021/11/26 07:18:25;;;;;;;50.63;28.03;;;;;;;0.09;100.00;100440.30;1632228;88;21509;-73
2021/11/26 07:20:53;;;;;;;53.43;32.33;;;;;;;0.15;100.00;100440.79;1628447;88;21445;-72
2021/11/26 07:23:20;;;;;;;51.90;31.80;;;;;;;0.20;100.00;100435.68;1627201;88;21101;-76
2021/11/26 07:25:46;;;;;;;48.67;29.07;;;;;;;0.26;100.00;100431.30;1621931;88;21054;-74
2021/11/26 07:28:13;;;;;;;49.57;28.60;;;;;;;0.33;100.00;100431.29;1633546;88;21095;-74
2021/11/26 07:30:40;;;;;;;48.00;28.07;;;;;;;0.41;100.00;100426.81;1621707;87;21152;-74
2021/11/26 07:33:08;;;;;;;49.20;26.67;;;;;;;0.48;100.00;100429.46;1632226;88;20995;-72
2021/11/26 07:35:40;;;;;;;53.17;28.47;;;;;;;0.53;100.00;100422.05;1571550;88;21107;-80
2021/11/26 07:38:07;;;;;;;49.23;28.30;;;;;;;0.63;100.00;100419.18;1571954;91;21026;-78
2021/11/26 07:40:34;;;;;;;54.63;28.03;;;;;;;0.74;100.00;100419.36;1580851;91;21054;-78
2021/11/26 07:43:01;;;;;;;48.50;27.23;;;;;;;0.87;100.00;100405.27;1576131;90;21083;-71
2021/11/26 07:45:28;;;;;;;44.43;25.07;;;;;;;1.01;100.00;100402.55;1571400;90;21121;-70
2021/11/26 07:47:55;;;;;;;47.50;26.10;;;;;;;1.20;100.00;100391.99;1530847;92;20980;-70
2021/11/26 07:50:22;;;;;;;49.27;27.13;;;;;;;1.38;100.00;100388.56;1534362;92;21749;-70
2021/11/26 07:52:48;;;;;;;46.47;26.30;;;;;;;1.46;100.00;100384.91;1614447;85;21484;-70
2021/11/26 07:55:15;;;;;;;42.77;24.63;;;;;;;1.57;100.00;100386.36;1642586;86;21055;-71
2021/11/26 07:57:42;;;;;;;42.00;24.07;;;;;;;1.67;100.00;100378.59;1651712;85;21496;-72
2021/11/26 08:00:11;;;;;;;43.77;25.97;;;;;;;1.80;100.00;100381.27;1648811;85;21572;-71
2021/11/26 08:02:39;;;;;;;41.97;24.20;;;;;;;1.95;100.00;100381.53;1654851;85;21040;-69
2021/11/26 08:05:06;;;;;;;43.77;24.77;;;;;;;2.07;100.00;100375.34;1660422;85;21045;-71
2021/11/26 08:07:33;;;;;;;41.67;25.03;;;;;;;2.13;100.00;100376.72;1699868;83;21039;-71
2021/11/26 08:10:04;;;;;;;43.63;23.80;;;;;;;2.17;100.00;100368.86;1711831;80;21088;-69
2021/11/26 08:12:32;;;;;;;42.03;23.70;;;;;;;2.26;100.00;100369.53;1729533;80;21126;-71
2021/11/26 08:14:59;;;;;;;38.27;22.70;;;;;;;2.43;100.00;100364.33;1757792;80;21049;-69
2021/11/26 08:17:27;;;;;;;41.03;23.77;;;;;;;2.67;100.00;100354.14;1753338;80;21707;-67
2021/11/26 08:19:55;;;;;;;39.60;24.67;;;;;;;2.91;100.00;100347.98;1746165;80;21017;-70
2021/11/26 08:22:22;;;;;;;38.77;22.00;;;;;;;3.06;100.00;100356.16;1740802;81;21011;-68
2021/11/26 08:24:48;;;;;;;39.43;22.57;;;;;;;3.21;100.00;100344.82;1735721;81;21049;-72
2021/11/26 08:27:15;;;;;;;38.03;22.53;;;;;;;3.23;100.00;100341.54;1742802;81;21085;-69
2021/11/26 08:29:43;;;;;;;36.87;21.90;;;;;;;3.27;100.00;100345.67;1757046;80;21528;-71
2021/11/26 08:32:10;;;;;;;44.20;23.37;;;;;;;3.29;100.00;100336.20;1762622;80;21111;-70
2021/11/26 08:34:37;;;;;;;44.73;26.37;;;;;;;3.33;100.00;100329.19;1747018;80;21074;-70
2021/11/26 08:37:04;;;;;;;44.33;24.03;;;;;;;3.45;100.00;100322.02;1749649;80;20998;-70
2021/11/26 08:39:31;;;;;;;37.87;21.63;;;;;;;3.59;100.00;100319.16;1734444;81;21011;-70
2021/11/26 08:41:57;;;;;;;38.40;20.93;;;;;;;3.82;100.00;100321.83;1742144;81;21031;-69
2021/11/26 08:44:24;;;;;;;40.67;21.10;;;;;;;3.96;100.00;100319.41;1728976;81;21011;-77
2021/11/26 08:46:52;;;;;;;36.67;21.67;;;;;;;3.95;100.00;100317.23;1748422;81;21014;-72
2021/11/26 08:49:18;;;;;;;38.57;21.83;;;;;;;4.02;100.00;100317.61;1753656;80;21000;-72
2021/11/26 08:51:47;;;;;;;35.10;20.77;;;;;;;4.16;100.00;100314.67;1742979;81;21060;-69
2021/11/26 08:54:14;;;;;;;35.77;21.33;;;;;;;4.40;100.00;100308.30;1721430;81;21006;-70
2021/11/26 08:56:44;;;;;;;39.33;22.83;;;;;;;4.47;100.00;100305.98;1697300;83;21074;-69
2021/11/26 08:59:10;;;;;;;35.33;20.50;;;;;;;4.56;100.00;100306.56;1699828;83;21538;-69
2021/11/26 09:01:37;;;;;;;35.33;19.53;;;;;;;4.52;100.00;100304.63;1702239;82;21108;-68
2021/11/26 09:04:07;;;;;;;34.80;20.70;;;;;;;4.54;100.00;100301.33;1698652;82;21488;-71
2021/11/26 09:06:34;;;;;;;34.00;20.00;;;;;;;4.49;100.00;100298.67;1759834;80;21061;-72
2021/11/26 09:09:01;;;;;;;39.63;21.37;;;;;;;4.57;100.00;100304.26;1752615;80;21099;-70
2021/11/26 09:11:31;;;;;;;40.93;21.20;;;;;;;4.58;100.00;100303.27;1729060;81;22444;-74
2021/11/26 09:14:00;;;;;;;38.90;23.50;;;;;;;4.74;100.00;100296.99;1737384;81;21090;-74
2021/11/26 09:16:27;;;;;;;34.73;21.13;;;;;;;5.04;100.00;100295.91;1743303;81;21038;-73
2021/11/26 09:18:54;;;;;;;40.97;22.80;;;;;;;5.17;100.00;100284.53;1740187;81;21497;-71
2021/11/26 09:21:21;;;;;;;36.60;22.13;;;;;;;5.20;100.00;100287.42;1758329;81;21506;-74
2021/11/26 09:23:49;;;;;;;48.43;26.83;;;;;;;5.25;100.00;100283.86;1727559;80;21066;-74
2021/11/26 09:26:16;;;;;;;46.60;24.93;;;;;;;5.27;100.00;100277.37;1738077;81;21012;-78
2021/11/26 09:28:42;;;;;;;47.50;27.00;;;;;;;5.29;100.00;100264.72;1748826;80;20938;-72
2021/11/26 09:31:09;;;;;;;45.10;23.77;;;;;;;5.38;100.00;100264.39;1739035;81;21098;-70
2021/11/26 09:33:37;;;;;;;42.37;23.60;;;;;;;5.41;100.00;100263.29;1744114;81;21027;-71
2021/11/26 09:36:07;;;;;;;44.10;22.77;;;;;;;5.42;100.00;100268.52;1729136;82;21010;-69
2021/11/26 09:38:36;;;;;;;38.53;21.33;;;;;;;5.42;100.00;100260.48;1718867;83;21035;-72
2021/11/26 09:41:05;;;;;;;32.27;18.20;;;;;;;5.53;100.00;100260.05;1702179;83;21049;-71
2021/11/26 09:43:31;;;;;;;37.43;22.50;;;;;;;5.69;100.00;100249.17;1722249;83;21128;-70
2021/11/26 09:46:02;;;;;;;38.43;20.33;;;;;;;5.85;100.00;100249.17;1720852;83;21604;-71
2021/11/26 09:48:29;;;;;;;38.63;21.10;;;;;;;5.89;100.00;100238.01;1697432;83;21093;-71
2021/11/26 09:50:56;;;;;;;37.17;22.50;;;;;;;6.06;100.00;100241.08;1704231;81;20990;-71
2021/11/26 09:53:26;;;;;;;37.47;21.70;;;;;;;6.15;100.00;100234.88;1701065;83;21078;-69
2021/11/26 09:55:57;;;;;;;33.30;18.83;;;;;;;6.21;100.00;100238.84;1693913;82;21021;-67
2021/11/26 09:58:27;;;;;;;29.47;17.43;;;;;;;6.24;100.00;100238.58;1605590;87;21582;-68
2021/11/26 10:00:55;;;;;;;32.33;17.83;;;;;;;6.19;100.00;100249.72;1596054;87;21194;-68
2021/11/26 10:03:23;;;;;;;29.77;16.20;;;;;;;6.10;100.00;100241.16;1614040;87;21614;-72
2021/11/26 10:05:50;;;;;;;30.73;17.03;;;;;;;5.86;100.00;100236.96;1585609;88;21181;-70
2021/11/26 10:08:24;;;;;;;30.30;16.60;;;;;;;5.73;100.00;100229.63;1568304;89;21122;-72
2021/11/26 10:11:01;;;;;;;29.15;16.23;;;;;;;5.58;100.00;100242.56;1580330;87;21095;-72
2021/11/26 10:13:31;;;;;;;30.33;15.27;;;;;;;5.67;100.00;100240.41;1568542;89;21077;-67
2021/11/26 10:16:08;;;;;;;26.77;15.20;;;;;;;5.74;100.00;100235.36;1573720;89;21096;-69
2021/11/26 10:18:35;;;;;;;26.77;15.73;;;;;;;5.77;100.00;100235.09;1551147;90;21133;-71
2021/11/26 10:21:09;;;;;;;25.07;14.10;;;;;;;5.82;100.00;100230.65;1568751;89;21017;-72
2021/11/26 10:23:49;;;;;;;26.93;14.93;;;;;;;5.90;100.00;100218.25;1602240;86;21082;-70
2021/11/26 10:26:21;;;;;;;28.43;16.30;;;;;;;5.92;100.00;100222.64;1597765;88;21103;-72
2021/11/26 10:29:01;;;;;;;28.60;15.70;;;;;;;5.97;100.00;100213.73;1588308;88;21191;-73
2021/11/26 10:31:36;;;;;;;30.80;18.37;;;;;;;6.11;100.00;100222.73;1573994;90;21145;-70
2021/11/26 10:34:06;;;;;;;57.47;28.17;;;;;;;6.31;100.00;100212.03;1570175;90;21597;-69
2021/11/26 10:36:47;;;;;;;62.37;33.40;;;;;;;6.40;100.00;100209.84;1574583;89;21085;-70
2021/11/26 10:39:20;;;;;;;36.60;21.10;;;;;;;6.48;100.00;100203.28;1566030;90;21612;-69
2021/11/26 10:41:52;;;;;;;;;;;;;;;6.55;100.00;100207.57;1574871;90;21147;-70
2021/11/26 10:44:21;;;;;;;26.57;15.33;;;;;;;6.64;100.00;100206.25;1581661;89;20163;-69
2021/11/26 10:47:05;;;;;;;27.67;15.60;;;;;;;6.70;100.00;100205.33;1572375;90;21103;-69
2021/11/26 10:57:56;;;;;;;28.00;14.23;;;;;;;6.42;100.00;100199.30;1563290;90;21655;-69
2021/11/26 11:00:16;;;;;;;27.10;15.00;;;;;;;6.48;100.00;100195.70;1555498;90;21099;-69
2021/11/26 11:02:47;;;;;;;31.10;16.83;;;;;;;6.50;100.00;100195.92;1549472;90;21054;-75
2021/11/26 11:05:31;;;;;;;34.37;19.97;;;;;;;6.60;100.00;100199.44;1505874;93;21357;-70
2021/11/26 11:08:00;;;;;;;32.30;16.47;;;;;;;6.75;100.00;100201.72;1505585;93;21050;-70
2021/11/26 11:10:32;;;;;;;28.80;17.10;;;;;;;6.88;100.00;100198.23;1504188;93;21121;-70
2021/11/26 11:13:09;;;;;;;26.73;15.23;;;;;;;6.87;100.00;100194.33;1526930;93;21099;-74
2021/11/26 11:15:38;;;;;;;27.20;14.50;;;;;;;6.83;100.00;100191.09;1522765;91;21056;-72
2021/11/26 11:18:06;;;;;;;29.23;15.27;;;;;;;6.82;100.00;100176.81;1526332;92;21169;-73
2021/11/26 11:20:35;;;;;;;26.47;14.20;;;;;;;6.87;100.00;100188.95;1520590;91;21200;-70